sensor_id;sensor_type;location;lat;lon;timestamp;temperature;humidity
51873;DHT22;52863;52.504;13.480;2022-09-09T00:00:55;14.70;99.90
51873;DHT22;52863;52.504;13.480;2022-09-09T00:03:27;14.60;99.90
51873;DHT22;52863;52.504;13.480;2022-09-09T00:05:59;14.60;99.90
51873;DHT22;52863;52.504;13.480;2022-09-09T00:08:37;14.60;99.90
51873;DHT22;52863;52.504;13.480;2022-09-09T00:11:12;14.60;99.90
51873;DHT22;52863;52.504;13.480;2022-09-09T00:13:46;14.60;99.90
51873;DHT22;52863;52.504;13.480;2022-09-09T00:16:17;14.60;99.90
51873;DHT22;52863;52.504;13.480;2022-09-09T00:18:53;14.60;99.90
51873;DHT22;52863;52.504;13.480;2022-09-09T00:21:25;14.60;99.90
51873;DHT22;52863;52.504;13.480;2022-09-09T00:23:55;14.60;99.90
51873;DHT22;52863;52.504;13.480;2022-09-09T00:26:30;14.50;99.90
51873;DHT22;52863;52.504;13.480;2022-09-09T00:29:05;14.50;99.90
51873;DHT22;52863;52.504;13.480;2022-09-09T00:31:36;14.50;99.90
51873;DHT22;52863;52.504;13.480;2022-09-09T00:34:09;14.50;99.90
51873;DHT22;52863;52.504;13.480;2022-09-09T00:36:39;14.50;99.90
51873;DHT22;52863;52.504;13.480;2022-09-09T00:39:13;14.50;99.90
51873;DHT22;52863;52.504;13.480;2022-09-09T00:41:56;14.50;99.90
51873;DHT22;52863;52.504;13.480;2022-09-09T00:44:31;14.40;99.90
51873;DHT22;52863;52.504;13.480;2022-09-09T00:47:09;14.50;99.90
51873;DHT22;52863;52.504;13.480;2022-09-09T00:49:45;14.50;99.90
51873;DHT22;52863;52.504;13.480;2022-09-09T00:52:26;14.70;99.90
51873;DHT22;52863;52.504;13.480;2022-09-09T00:55:02;14.50;99.90
51873;DHT22;52863;52.504;13.480;2022-09-09T00:57:31;14.40;99.90
51873;DHT22;52863;52.504;13.480;2022-09-09T01:02:52;14.40;99.90
51873;DHT22;52863;52.504;13.480;2022-09-09T01:05:26;14.40;99.90
51873;DHT22;52863;52.504;13.480;2022-09-09T01:08:03;14.40;99.90
51873;DHT22;52863;52.504;13.480;2022-09-09T01:10:47;14.40;99.90
51873;DHT22;52863;52.504;13.480;2022-09-09T01:13:22;14.30;99.90
51873;DHT22;52863;52.504;13.480;2022-09-09T01:15:51;14.70;99.90
51873;DHT22;52863;52.504;13.480;2022-09-09T01:18:27;14.20;99.90
51873;DHT22;52863;52.504;13.480;2022-09-09T01:21:01;14.20;99.90
51873;DHT22;52863;52.504;13.480;2022-09-09T01:23:45;14.40;99.90
51873;DHT22;52863;52.504;13.480;2022-09-09T01:26:19;14.10;99.90
51873;DHT22;52863;52.504;13.480;2022-09-09T01:28:49;14.10;99.90
51873;DHT22;52863;52.504;13.480;2022-09-09T01:31:19;14.10;99.90
51873;DHT22;52863;52.504;13.480;2022-09-09T01:36:20;14.00;99.90
51873;DHT22;52863;52.504;13.480;2022-09-09T01:43:42;14.00;99.90
51873;DHT22;52863;52.504;13.480;2022-09-09T01:46:09;14.00;99.90
51873;DHT22;52863;52.504;13.480;2022-09-09T01:51:04;14.10;99.90
51873;DHT22;52863;52.504;13.480;2022-09-09T01:56:07;14.00;99.90
51873;DHT22;52863;52.504;13.480;2022-09-09T01:58:47;14.10;99.90
51873;DHT22;52863;52.504;13.480;2022-09-09T02:01:26;14.00;99.90
51873;DHT22;52863;52.504;13.480;2022-09-09T02:03:57;14.00;99.90
51873;DHT22;52863;52.504;13.480;2022-09-09T02:06:27;13.90;99.90
51873;DHT22;52863;52.504;13.480;2022-09-09T02:08:57;13.90;99.90
51873;DHT22;52863;52.504;13.480;2022-09-09T02:11:27;13.90;99.90
51873;DHT22;52863;52.504;13.480;2022-09-09T02:13:59;13.90;99.90
51873;DHT22;52863;52.504;13.480;2022-09-09T02:16:30;13.90;99.90
51873;DHT22;52863;52.504;13.480;2022-09-09T02:19:01;13.90;99.90
51873;DHT22;52863;52.504;13.480;2022-09-09T02:21:30;13.90;99.90
51873;DHT22;52863;52.504;13.480;2022-09-09T02:23:59;13.90;99.90
51873;DHT22;52863;52.504;13.480;2022-09-09T02:28:56;13.90;99.90
51873;DHT22;52863;52.504;13.480;2022-09-09T02:33:55;13.90;99.90
51873;DHT22;52863;52.504;13.480;2022-09-09T02:36:25;13.80;99.90
51873;DHT22;52863;52.504;13.480;2022-09-09T02:39:01;13.70;99.90
51873;DHT22;52863;52.504;13.480;2022-09-09T02:41:32;13.70;99.90
51873;DHT22;52863;52.504;13.480;2022-09-09T02:44:00;13.70;99.90
51873;DHT22;52863;52.504;13.480;2022-09-09T02:46:46;13.70;99.90
51873;DHT22;52863;52.504;13.480;2022-09-09T02:49:19;13.40;99.90
51873;DHT22;52863;52.504;13.480;2022-09-09T02:51:54;13.60;99.90
51873;DHT22;52863;52.504;13.480;2022-09-09T02:54:27;13.50;99.90
51873;DHT22;52863;52.504;13.480;2022-09-09T02:59:25;13.50;99.90
51873;DHT22;52863;52.504;13.480;2022-09-09T03:16:38;13.50;99.90
51873;DHT22;52863;52.504;13.480;2022-09-09T03:26:29;13.50;99.90
51873;DHT22;52863;52.504;13.480;2022-09-09T03:48:36;13.30;99.90
51873;DHT22;52863;52.504;13.480;2022-09-09T03:51:04;13.20;99.90
51873;DHT22;52863;52.504;13.480;2022-09-09T03:53:30;13.50;99.90
51873;DHT22;52863;52.504;13.480;2022-09-09T04:00:54;13.20;99.90
51873;DHT22;52863;52.504;13.480;2022-09-09T04:05:58;13.10;99.90
51873;DHT22;52863;52.504;13.480;2022-09-09T04:13:24;13.00;99.90
51873;DHT22;52863;52.504;13.480;2022-09-09T04:15:52;13.00;99.90
51873;DHT22;52863;52.504;13.480;2022-09-09T04:18:19;13.00;99.90
51873;DHT22;52863;52.504;13.480;2022-09-09T04:25:44;13.00;99.90
51873;DHT22;52863;52.504;13.480;2022-09-09T04:42:58;13.00;99.90
51873;DHT22;52863;52.504;13.480;2022-09-09T04:55:14;13.20;99.90
51873;DHT22;52863;52.504;13.480;2022-09-09T04:57:41;13.10;99.90
51873;DHT22;52863;52.504;13.480;2022-09-09T05:00:13;13.20;99.90
51873;DHT22;52863;52.504;13.480;2022-09-09T05:05:08;15.50;99.90
51873;DHT22;52863;52.504;13.480;2022-09-09T05:10:04;13.80;99.90
51873;DHT22;52863;52.504;13.480;2022-09-09T05:17:27;14.00;99.90
51873;DHT22;52863;52.504;13.480;2022-09-09T05:42:05;15.10;99.90
51873;DHT22;52863;52.504;13.480;2022-09-09T05:51:54;15.50;99.90
51873;DHT22;52863;52.504;13.480;2022-09-09T06:09:09;16.10;99.90
51873;DHT22;52863;52.504;13.480;2022-09-09T06:11:38;16.00;99.90
51873;DHT22;52863;52.504;13.480;2022-09-09T06:14:05;17.70;99.90
51873;DHT22;52863;52.504;13.480;2022-09-09T06:19:00;16.20;99.90
51873;DHT22;52863;52.504;13.480;2022-09-09T06:21:28;16.10;99.90
51873;DHT22;52863;52.504;13.480;2022-09-09T06:26:31;16.10;99.90
51873;DHT22;52863;52.504;13.480;2022-09-09T06:28:59;16.40;99.90
51873;DHT22;52863;52.504;13.480;2022-09-09T06:31:31;16.60;99.90
51873;DHT22;52863;52.504;13.480;2022-09-09T06:33:58;16.60;99.90
51873;DHT22;52863;52.504;13.480;2022-09-09T06:36:26;16.60;99.90
51873;DHT22;52863;52.504;13.480;2022-09-09T06:41:21;16.90;99.90
51873;DHT22;52863;52.504;13.480;2022-09-09T06:43:51;16.90;99.90
51873;DHT22;52863;52.504;13.480;2022-09-09T06:46:19;17.10;99.90
51873;DHT22;52863;52.504;13.480;2022-09-09T06:51:22;17.10;99.90
51873;DHT22;52863;52.504;13.480;2022-09-09T06:53:51;17.30;99.90
51873;DHT22;52863;52.504;13.480;2022-09-09T06:56:24;17.80;99.90
51873;DHT22;52863;52.504;13.480;2022-09-09T06:58:52;17.40;99.90
51873;DHT22;52863;52.504;13.480;2022-09-09T07:01:22;17.50;99.90
51873;DHT22;52863;52.504;13.480;2022-09-09T07:03:51;17.50;99.90
51873;DHT22;52863;52.504;13.480;2022-09-09T07:06:22;17.40;99.90
51873;DHT22;52863;52.504;13.480;2022-09-09T07:08:50;17.50;99.90
51873;DHT22;52863;52.504;13.480;2022-09-09T07:11:25;17.60;99.90
51873;DHT22;52863;52.504;13.480;2022-09-09T07:13:54;17.60;99.90
51873;DHT22;52863;52.504;13.480;2022-09-09T07:16:21;17.70;99.90
51873;DHT22;52863;52.504;13.480;2022-09-09T07:26:13;17.90;99.90
51873;DHT22;52863;52.504;13.480;2022-09-09T07:31:14;18.00;99.90
51873;DHT22;52863;52.504;13.480;2022-09-09T07:33:43;18.10;99.90
51873;DHT22;52863;52.504;13.480;2022-09-09T07:36:13;18.50;99.90
51873;DHT22;52863;52.504;13.480;2022-09-09T07:38:48;18.30;99.90
51873;DHT22;52863;52.504;13.480;2022-09-09T07:41:17;18.40;99.90
51873;DHT22;52863;52.504;13.480;2022-09-09T07:43:46;18.60;99.90
51873;DHT22;52863;52.504;13.480;2022-09-09T07:46:16;18.80;99.90
51873;DHT22;52863;52.504;13.480;2022-09-09T07:48:44;18.80;99.90
51873;DHT22;52863;52.504;13.480;2022-09-09T07:51:15;18.80;99.90
51873;DHT22;52863;52.504;13.480;2022-09-09T07:56:12;19.00;99.90
51873;DHT22;52863;52.504;13.480;2022-09-09T07:58:40;19.00;99.90
51873;DHT22;52863;52.504;13.480;2022-09-09T08:01:08;19.20;99.90
51873;DHT22;52863;52.504;13.480;2022-09-09T08:03:36;19.30;99.90
51873;DHT22;52863;52.504;13.480;2022-09-09T08:06:05;19.40;99.90
51873;DHT22;52863;52.504;13.480;2022-09-09T08:08:33;19.60;99.90
51873;DHT22;52863;52.504;13.480;2022-09-09T08:11:05;20.10;99.90
51873;DHT22;52863;52.504;13.480;2022-09-09T08:13:34;21.30;99.90
51873;DHT22;52863;52.504;13.480;2022-09-09T08:16:09;20.60;99.90
51873;DHT22;52863;52.504;13.480;2022-09-09T08:18:37;21.40;99.90
51873;DHT22;52863;52.504;13.480;2022-09-09T08:21:07;22.20;99.90
51873;DHT22;52863;52.504;13.480;2022-09-09T08:26:06;21.60;99.90
51873;DHT22;52863;52.504;13.480;2022-09-09T08:31:08;20.90;99.90
51873;DHT22;52863;52.504;13.480;2022-09-09T08:36:05;23.10;99.90
51873;DHT22;52863;52.504;13.480;2022-09-09T08:38:32;20.70;99.90
51873;DHT22;52863;52.504;13.480;2022-09-09T08:41:16;20.70;99.90
51873;DHT22;52863;52.504;13.480;2022-09-09T08:43:48;20.70;99.90
51873;DHT22;52863;52.504;13.480;2022-09-09T08:46:21;20.50;99.90
51873;DHT22;52863;52.504;13.480;2022-09-09T08:48:56;20.10;99.90
51873;DHT22;52863;52.504;13.480;2022-09-09T08:51:26;20.00;99.90
51873;DHT22;52863;52.504;13.480;2022-09-09T08:53:54;20.00;99.90
51873;DHT22;52863;52.504;13.480;2022-09-09T08:56:27;20.00;99.90
51873;DHT22;52863;52.504;13.480;2022-09-09T08:58:55;20.00;99.90
51873;DHT22;52863;52.504;13.480;2022-09-09T09:01:42;19.80;99.90
51873;DHT22;52863;52.504;13.480;2022-09-09T09:04:26;20.00;99.90
51873;DHT22;52863;52.504;13.480;2022-09-09T09:07:01;20.50;99.90
51873;DHT22;52863;52.504;13.480;2022-09-09T09:09:36;21.10;99.90
51873;DHT22;52863;52.504;13.480;2022-09-09T09:12:14;22.00;99.90
51873;DHT22;52863;52.504;13.480;2022-09-09T09:14:42;23.50;99.90
51873;DHT22;52863;52.504;13.480;2022-09-09T09:17:14;25.00;99.90
51873;DHT22;52863;52.504;13.480;2022-09-09T09:19:45;25.90;99.90
51873;DHT22;52863;52.504;13.480;2022-09-09T09:22:18;26.60;99.90
51873;DHT22;52863;52.504;13.480;2022-09-09T09:24:52;27.30;99.90
51873;DHT22;52863;52.504;13.480;2022-09-09T09:27:25;27.50;99.90
51873;DHT22;52863;52.504;13.480;2022-09-09T09:29:55;28.00;99.90
51873;DHT22;52863;52.504;13.480;2022-09-09T09:32:51;28.00;99.90
51873;DHT22;52863;52.504;13.480;2022-09-09T09:35:20;28.80;99.90
51873;DHT22;52863;52.504;13.480;2022-09-09T09:37:47;29.20;99.90
51873;DHT22;52863;52.504;13.480;2022-09-09T09:40:37;29.70;99.90
51873;DHT22;52863;52.504;13.480;2022-09-09T09:43:20;30.10;99.90
51873;DHT22;52863;52.504;13.480;2022-09-09T09:45:48;30.40;99.90
51873;DHT22;52863;52.504;13.480;2022-09-09T09:48:36;29.80;99.40
51873;DHT22;52863;52.504;13.480;2022-09-09T09:51:09;29.00;99.90
51873;DHT22;52863;52.504;13.480;2022-09-09T09:53:39;28.40;98.80
51873;DHT22;52863;52.504;13.480;2022-09-09T09:56:08;28.90;99.90
51873;DHT22;52863;52.504;13.480;2022-09-09T09:58:49;29.90;99.90
51873;DHT22;52863;52.504;13.480;2022-09-09T10:01:21;30.40;96.70
51873;DHT22;52863;52.504;13.480;2022-09-09T10:03:51;31.10;96.20
51873;DHT22;52863;52.504;13.480;2022-09-09T10:06:30;31.90;94.70
51873;DHT22;52863;52.504;13.480;2022-09-09T10:08:57;29.40;88.40
51873;DHT22;52863;52.504;13.480;2022-09-09T10:11:44;32.40;90.60
51873;DHT22;52863;52.504;13.480;2022-09-09T10:14:20;32.00;92.90
51873;DHT22;52863;52.504;13.480;2022-09-09T10:17:04;30.70;95.30
51873;DHT22;52863;52.504;13.480;2022-09-09T10:19:45;30.70;92.50
51873;DHT22;52863;52.504;13.480;2022-09-09T10:22:27;31.40;94.90
51873;DHT22;52863;52.504;13.480;2022-09-09T10:29:10;29.80;90.80
51873;DHT22;52863;52.504;13.480;2022-09-09T10:31:49;29.60;90.20
51873;DHT22;52863;52.504;13.480;2022-09-09T10:34:28;28.40;92.40
51873;DHT22;52863;52.504;13.480;2022-09-09T10:36:59;27.00;94.60
51873;DHT22;52863;52.504;13.480;2022-09-09T10:39:35;27.20;95.30
51873;DHT22;52863;52.504;13.480;2022-09-09T10:42:12;27.30;95.50
51873;DHT22;52863;52.504;13.480;2022-09-09T10:44:59;27.80;94.30
51873;DHT22;52863;52.504;13.480;2022-09-09T10:50:42;26.80;96.30
51873;DHT22;52863;52.504;13.480;2022-09-09T10:53:46;26.60;99.90
51873;DHT22;52863;52.504;13.480;2022-09-09T10:56:21;26.70;98.60
51873;DHT22;52863;52.504;13.480;2022-09-09T10:58:56;27.30;98.50
51873;DHT22;52863;52.504;13.480;2022-09-09T11:01:25;28.50;97.50
51873;DHT22;52863;52.504;13.480;2022-09-09T11:03:57;29.30;93.90
51873;DHT22;52863;52.504;13.480;2022-09-09T11:06:30;29.30;95.10
51873;DHT22;52863;52.504;13.480;2022-09-09T11:09:01;29.30;93.30
51873;DHT22;52863;52.504;13.480;2022-09-09T11:11:33;28.00;94.90
51873;DHT22;52863;52.504;13.480;2022-09-09T11:14:03;28.00;97.40
51873;DHT22;52863;52.504;13.480;2022-09-09T11:16:41;28.90;96.10
51873;DHT22;52863;52.504;13.480;2022-09-09T11:19:15;29.20;94.40
51873;DHT22;52863;52.504;13.480;2022-09-09T11:21:46;28.70;93.80
51873;DHT22;52863;52.504;13.480;2022-09-09T11:24:18;28.40;95.30
51873;DHT22;52863;52.504;13.480;2022-09-09T11:26:53;27.90;94.30
51873;DHT22;52863;52.504;13.480;2022-09-09T11:29:38;28.00;93.90
51873;DHT22;52863;52.504;13.480;2022-09-09T11:32:21;28.70;93.50
51873;DHT22;52863;52.504;13.480;2022-09-09T11:34:54;27.80;93.80
51873;DHT22;52863;52.504;13.480;2022-09-09T11:37:44;26.80;94.10
51873;DHT22;52863;52.504;13.480;2022-09-09T11:40:22;28.20;93.70
51873;DHT22;52863;52.504;13.480;2022-09-09T11:43:01;29.30;92.60
51873;DHT22;52863;52.504;13.480;2022-09-09T11:45:30;29.40;91.10
51873;DHT22;52863;52.504;13.480;2022-09-09T11:47:59;29.20;91.50
51873;DHT22;52863;52.504;13.480;2022-09-09T11:50:32;29.20;93.60
51873;DHT22;52863;52.504;13.480;2022-09-09T11:53:21;29.90;96.00
51873;DHT22;52863;52.504;13.480;2022-09-09T11:56:04;30.50;91.40
51873;DHT22;52863;52.504;13.480;2022-09-09T11:58:37;29.60;95.30
51873;DHT22;52863;52.504;13.480;2022-09-09T12:01:33;28.60;92.50
51873;DHT22;52863;52.504;13.480;2022-09-09T12:04:13;27.10;93.50
51873;DHT22;52863;52.504;13.480;2022-09-09T12:06:51;26.70;96.70
51873;DHT22;52863;52.504;13.480;2022-09-09T12:09:23;26.90;95.90
51873;DHT22;52863;52.504;13.480;2022-09-09T12:14:36;27.00;99.90
51873;DHT22;52863;52.504;13.480;2022-09-09T12:17:19;28.40;94.80
51873;DHT22;52863;52.504;13.480;2022-09-09T12:19:47;28.80;92.60
51873;DHT22;52863;52.504;13.480;2022-09-09T12:22:23;28.40;93.10
51873;DHT22;52863;52.504;13.480;2022-09-09T12:24:56;29.70;90.40
51873;DHT22;52863;52.504;13.480;2022-09-09T12:27:29;29.00;95.00
51873;DHT22;52863;52.504;13.480;2022-09-09T12:30:02;28.50;91.40
51873;DHT22;52863;52.504;13.480;2022-09-09T12:32:30;28.10;92.10
51873;DHT22;52863;52.504;13.480;2022-09-09T12:34:59;27.50;92.60
51873;DHT22;52863;52.504;13.480;2022-09-09T12:37:32;26.70;92.60
51873;DHT22;52863;52.504;13.480;2022-09-09T12:40:01;25.70;94.30
51873;DHT22;52863;52.504;13.480;2022-09-09T12:44:57;25.00;99.90
51873;DHT22;52863;52.504;13.480;2022-09-09T12:47:36;24.50;98.10
51873;DHT22;52863;52.504;13.480;2022-09-09T12:50:15;24.20;97.90
51873;DHT22;52863;52.504;13.480;2022-09-09T12:55:18;23.90;99.90
51873;DHT22;52863;52.504;13.480;2022-09-09T13:00:15;23.70;99.50
51873;DHT22;52863;52.504;13.480;2022-09-09T13:02:47;23.70;99.90
51873;DHT22;52863;52.504;13.480;2022-09-09T13:05:19;23.20;99.90
51873;DHT22;52863;52.504;13.480;2022-09-09T13:10:20;23.60;99.90
51873;DHT22;52863;52.504;13.480;2022-09-09T13:15:31;23.40;99.90
51873;DHT22;52863;52.504;13.480;2022-09-09T13:18:00;23.80;99.90
51873;DHT22;52863;52.504;13.480;2022-09-09T13:22:57;24.10;99.90
51873;DHT22;52863;52.504;13.480;2022-09-09T13:25:26;24.20;99.90
51873;DHT22;52863;52.504;13.480;2022-09-09T13:27:55;24.00;99.90
51873;DHT22;52863;52.504;13.480;2022-09-09T13:30:24;24.00;99.90
51873;DHT22;52863;52.504;13.480;2022-09-09T13:33:04;24.20;99.90
51873;DHT22;52863;52.504;13.480;2022-09-09T13:35:31;24.10;99.90
51873;DHT22;52863;52.504;13.480;2022-09-09T13:37:59;24.10;99.90
51873;DHT22;52863;52.504;13.480;2022-09-09T13:47:55;23.90;99.90
51873;DHT22;52863;52.504;13.480;2022-09-09T13:50:25;23.80;99.90
51873;DHT22;52863;52.504;13.480;2022-09-09T13:52:54;23.80;99.90
51873;DHT22;52863;52.504;13.480;2022-09-09T13:55:22;25.80;99.90
51873;DHT22;52863;52.504;13.480;2022-09-09T13:57:53;24.10;99.90
51873;DHT22;52863;52.504;13.480;2022-09-09T14:00:20;23.90;99.90
51873;DHT22;52863;52.504;13.480;2022-09-09T14:07:45;23.80;99.90
51873;DHT22;52863;52.504;13.480;2022-09-09T14:20:09;23.20;99.90
51873;DHT22;52863;52.504;13.480;2022-09-09T14:25:07;23.50;99.90
51873;DHT22;52863;52.504;13.480;2022-09-09T14:27:37;23.40;99.90
51873;DHT22;52863;52.504;13.480;2022-09-09T14:30:06;23.00;99.90
51873;DHT22;52863;52.504;13.480;2022-09-09T14:42:24;23.50;99.90
51873;DHT22;52863;52.504;13.480;2022-09-09T14:47:19;23.60;99.90
51873;DHT22;52863;52.504;13.480;2022-09-09T14:59:38;23.40;99.90
51873;DHT22;52863;52.504;13.480;2022-09-09T15:02:08;23.30;99.90
51873;DHT22;52863;52.504;13.480;2022-09-09T15:26:56;22.60;99.90
51873;DHT22;52863;52.504;13.480;2022-09-09T15:32:29;22.80;99.90
51873;DHT22;52863;52.504;13.480;2022-09-09T15:47:12;22.50;99.90
51873;DHT22;52863;52.504;13.480;2022-09-09T15:49:40;22.40;99.90
51873;DHT22;52863;52.504;13.480;2022-09-09T15:52:10;22.40;99.90
51873;DHT22;52863;52.504;13.480;2022-09-09T15:57:06;22.30;99.90
51873;DHT22;52863;52.504;13.480;2022-09-09T16:07:05;25.80;99.90
51873;DHT22;52863;52.504;13.480;2022-09-09T16:09:33;22.30;99.90
51873;DHT22;52863;52.504;13.480;2022-09-09T16:12:02;22.10;99.90
51873;DHT22;52863;52.504;13.480;2022-09-09T16:26:58;22.30;99.90
51873;DHT22;52863;52.504;13.480;2022-09-09T16:39:21;22.00;99.90
51873;DHT22;52863;52.504;13.480;2022-09-09T16:41:48;22.00;99.90
51873;DHT22;52863;52.504;13.480;2022-09-09T16:44:17;21.90;99.90
51873;DHT22;52863;52.504;13.480;2022-09-09T16:46:46;21.80;99.90
51873;DHT22;52863;52.504;13.480;2022-09-09T16:49:15;21.70;99.90
51873;DHT22;52863;52.504;13.480;2022-09-09T16:51:44;21.60;99.90
51873;DHT22;52863;52.504;13.480;2022-09-09T16:56:42;21.40;99.90
51873;DHT22;52863;52.504;13.480;2022-09-09T16:59:11;21.10;99.90
51873;DHT22;52863;52.504;13.480;2022-09-09T17:01:40;21.30;99.90
51873;DHT22;52863;52.504;13.480;2022-09-09T17:04:09;21.10;99.90
51873;DHT22;52863;52.504;13.480;2022-09-09T17:09:07;20.90;99.90
51873;DHT22;52863;52.504;13.480;2022-09-09T17:14:03;20.70;99.90
51873;DHT22;52863;52.504;13.480;2022-09-09T17:16:31;22.90;99.90
51873;DHT22;52863;52.504;13.480;2022-09-09T17:19:03;20.40;99.90
51873;DHT22;52863;52.504;13.480;2022-09-09T17:21:31;20.40;99.90
51873;DHT22;52863;52.504;13.480;2022-09-09T17:26:27;20.20;99.90
51873;DHT22;52863;52.504;13.480;2022-09-09T17:31:27;20.00;99.90
51873;DHT22;52863;52.504;13.480;2022-09-09T17:33:55;19.90;99.90
51873;DHT22;52863;52.504;13.480;2022-09-09T17:36:23;20.00;99.90
51873;DHT22;52863;52.504;13.480;2022-09-09T17:38:51;19.80;99.90
51873;DHT22;52863;52.504;13.480;2022-09-09T17:41:20;19.70;99.90
51873;DHT22;52863;52.504;13.480;2022-09-09T17:46:17;19.40;99.90
51873;DHT22;52863;52.504;13.480;2022-09-09T17:48:47;19.30;99.90
51873;DHT22;52863;52.504;13.480;2022-09-09T17:51:18;19.20;99.90
51873;DHT22;52863;52.504;13.480;2022-09-09T17:53:47;19.10;99.90
51873;DHT22;52863;52.504;13.480;2022-09-09T17:56:17;19.00;99.90
51873;DHT22;52863;52.504;13.480;2022-09-09T18:01:16;18.80;99.90
51873;DHT22;52863;52.504;13.480;2022-09-09T18:03:44;18.70;99.90
51873;DHT22;52863;52.504;13.480;2022-09-09T18:06:15;18.60;99.90
51873;DHT22;52863;52.504;13.480;2022-09-09T18:08:48;18.40;99.90
51873;DHT22;52863;52.504;13.480;2022-09-09T18:11:16;18.40;99.90
51873;DHT22;52863;52.504;13.480;2022-09-09T18:23:38;18.40;99.90
51873;DHT22;52863;52.504;13.480;2022-09-09T18:26:07;18.20;99.90
51873;DHT22;52863;52.504;13.480;2022-09-09T18:31:05;18.00;99.90
51873;DHT22;52863;52.504;13.480;2022-09-09T18:33:34;17.80;99.90
51873;DHT22;52863;52.504;13.480;2022-09-09T18:36:05;17.80;99.90
51873;DHT22;52863;52.504;13.480;2022-09-09T18:41:12;17.60;99.90
51873;DHT22;52863;52.504;13.480;2022-09-09T18:58:28;17.50;99.90
51873;DHT22;52863;52.504;13.480;2022-09-09T19:28:03;14.00;99.90
51873;DHT22;52863;52.504;13.480;2022-09-09T19:33:21;17.00;99.90
51873;DHT22;52863;52.504;13.480;2022-09-09T19:35:57;16.90;99.90
51873;DHT22;52863;52.504;13.480;2022-09-09T19:43:23;16.30;99.90
51873;DHT22;52863;52.504;13.480;2022-09-09T19:45:58;16.70;99.90
51873;DHT22;52863;52.504;13.480;2022-09-09T19:48:33;16.70;99.90
51873;DHT22;52863;52.504;13.480;2022-09-09T19:51:05;16.70;99.90
51873;DHT22;52863;52.504;13.480;2022-09-09T19:53:38;16.70;99.90
51873;DHT22;52863;52.504;13.480;2022-09-09T19:56:10;16.90;99.90
51873;DHT22;52863;52.504;13.480;2022-09-09T19:58:38;16.80;99.90
51873;DHT22;52863;52.504;13.480;2022-09-09T20:01:10;17.00;99.90
51873;DHT22;52863;52.504;13.480;2022-09-09T20:03:40;16.70;99.90
51873;DHT22;52863;52.504;13.480;2022-09-09T20:06:09;16.80;99.90
51873;DHT22;52863;52.504;13.480;2022-09-09T20:08:37;16.80;99.90
51873;DHT22;52863;52.504;13.480;2022-09-09T20:11:06;17.00;99.90
51873;DHT22;52863;52.504;13.480;2022-09-09T20:13:35;16.80;99.90
51873;DHT22;52863;52.504;13.480;2022-09-09T20:16:05;16.80;99.90
51873;DHT22;52863;52.504;13.480;2022-09-09T20:18:35;16.80;99.90
51873;DHT22;52863;52.504;13.480;2022-09-09T20:21:04;16.80;99.90
51873;DHT22;52863;52.504;13.480;2022-09-09T20:23:32;16.60;99.90
51873;DHT22;52863;52.504;13.480;2022-09-09T20:26:00;16.70;99.90
51873;DHT22;52863;52.504;13.480;2022-09-09T20:33:22;16.70;99.90
51873;DHT22;52863;52.504;13.480;2022-09-09T20:38:16;16.60;99.90
51873;DHT22;52863;52.504;13.480;2022-09-09T20:55:37;16.30;99.90
51873;DHT22;52863;52.504;13.480;2022-09-09T21:12:52;16.10;99.90
51873;DHT22;52863;52.504;13.480;2022-09-09T21:25:07;16.00;99.90
51873;DHT22;52863;52.504;13.480;2022-09-09T21:30:02;16.10;99.90
51873;DHT22;52863;52.504;13.480;2022-09-09T21:40:06;15.50;99.90
51873;DHT22;52863;52.504;13.480;2022-09-09T21:47:28;15.70;99.90
51873;DHT22;52863;52.504;13.480;2022-09-09T22:04:47;15.60;99.90
51873;DHT22;52863;52.504;13.480;2022-09-09T22:22:00;15.50;99.90
51873;DHT22;52863;52.504;13.480;2022-09-09T22:31:49;15.40;99.90
51873;DHT22;52863;52.504;13.480;2022-09-09T22:39:13;15.50;99.90
51873;DHT22;52863;52.504;13.480;2022-09-09T22:56:29;15.30;99.90
51873;DHT22;52863;52.504;13.480;2022-09-09T23:01:24;15.30;99.90
51873;DHT22;52863;52.504;13.480;2022-09-09T23:03:53;15.40;99.90
51873;DHT22;52863;52.504;13.480;2022-09-09T23:06:23;15.20;99.90
51873;DHT22;52863;52.504;13.480;2022-09-09T23:08:51;15.20;99.90
51873;DHT22;52863;52.504;13.480;2022-09-09T23:11:21;15.10;99.90
51873;DHT22;52863;52.504;13.480;2022-09-09T23:13:50;15.10;99.90
51873;DHT22;52863;52.504;13.480;2022-09-09T23:16:19;15.10;99.90
51873;DHT22;52863;52.504;13.480;2022-09-09T23:21:14;15.00;99.90
51873;DHT22;52863;52.504;13.480;2022-09-09T23:23:41;14.90;99.90
51873;DHT22;52863;52.504;13.480;2022-09-09T23:26:11;14.90;99.90
51873;DHT22;52863;52.504;13.480;2022-09-09T23:28:39;14.90;99.90
51873;DHT22;52863;52.504;13.480;2022-09-09T23:31:09;14.60;99.90
51873;DHT22;52863;52.504;13.480;2022-09-09T23:36:05;14.80;99.90
51873;DHT22;52863;52.504;13.480;2022-09-09T23:41:01;14.60;99.90
51873;DHT22;52863;52.504;13.480;2022-09-09T23:45:55;14.60;99.90
51873;DHT22;52863;52.504;13.480;2022-09-09T23:48:31;14.50;99.90
51873;DHT22;52863;52.504;13.480;2022-09-09T23:51:03;14.60;99.90
51873;DHT22;52863;52.504;13.480;2022-09-09T23:58:30;14.50;99.90
